Time;durP1;ratioP1;P1;durP2;ratioP2;P2;SDS_P1;SDS_P2;PMS_P1;PMS_P2;Temp;Humidity;BMP_temperature;BMP_pressure;BME280_temperature;BME280_humidity;BME280_pressure;Samples;Min_cycle;Max_cycle;Signal;HPM_P1;HPM_P2
2023/10/31 00:00:45;;;;;;;0.68;0.40;;;;;;;;;;5014371;28;20437;-86
2023/10/31 00:03:11;;;;;;;1.60;0.63;;;;;;;;;;5012332;28;20292;-84
2023/10/31 00:05:37;;;;;;;0.40;0.30;;;;;;;;;;5013484;28;20469;-84
2023/10/31 00:08:03;;;;;;;1.00;0.33;;;;;;;;;;5007508;28;20532;-83
2023/10/31 00:10:29;;;;;;;0.40;0.40;;;;;;;;;;5032180;28;20424;-83
2023/10/31 00:12:55;;;;;;;0.60;0.40;;;;;;;;;;5008426;28;20187;-86
2023/10/31 00:15:21;;;;;;;0.33;0.23;;;;;;;;;;5016524;28;20464;-84
2023/10/31 00:17:47;;;;;;;0.77;0.77;;;;;;;;;;5013126;28;20503;-83
2023/10/31 00:20:13;;;;;;;0.60;0.40;;;;;;;;;;5015534;28;20980;-84
2023/10/31 00:22:39;;;;;;;0.40;0.30;;;;;;;;;;5014797;28;20935;-85
2023/10/31 00:25:05;;;;;;;0.40;0.30;;;;;;;;;;5032674;28;20461;-83
2023/10/31 00:27:31;;;;;;;0.68;0.40;;;;;;;;;;5033648;28;20448;-84
2023/10/31 00:29:57;;;;;;;0.53;0.40;;;;;;;;;;5029693;28;20202;-85
2023/10/31 00:32:25;;;;;;;0.40;0.40;;;;;;;;;;5016278;28;20500;-81
2023/10/31 00:34:51;;;;;;;4.07;0.73;;;;;;;;;;5027324;28;20917;-85
2023/10/31 00:37:17;;;;;;;1.00;0.53;;;;;;;;;;5011051;28;20193;-83
2023/10/31 00:39:44;;;;;;;1.00;0.80;;;10.90;99.90;;;;;;5015132;28;20422;-86
2023/10/31 00:42:10;;;;;;;1.00;0.50;;;;;;;;;;5015445;28;20456;-83
2023/10/31 00:44:35;;;;;;;0.73;0.40;;;;;;;;;;5014802;28;20218;-80
2023/10/31 00:47:01;;;;;;;0.40;0.30;;;;;;;;;;5012499;28;20536;-82
2023/10/31 00:49:27;;;;;;;1.10;0.67;;;10.80;99.90;;;;;;5013948;28;20428;-85
2023/10/31 00:51:53;;;;;;;0.60;0.50;;;;;;;;;;5009773;28;20432;-87
2023/10/31 00:54:19;;;;;;;0.50;0.50;;;;;;;;;;5012769;28;20202;-84
2023/10/31 00:56:45;;;;;;;2.37;0.50;;;;;;;;;;5014198;28;20427;-83
2023/10/31 00:59:11;;;;;;;1.05;0.73;;;;;;;;;;5013068;28;20453;-82
2023/10/31 01:01:37;;;;;;;0.70;0.50;;;;;;;;;;5025922;28;20233;-80
2023/10/31 01:04:03;;;;;;;0.60;0.50;;;;;;;;;;5017931;28;20550;-80
2023/10/31 01:06:29;;;;;;;0.40;0.30;;;10.50;99.90;;;;;;5020459;28;20456;-83
2023/10/31 01:08:55;;;;;;;0.40;0.30;;;;;;;;;;5031209;28;20243;-84
2023/10/31 01:11:21;;;;;;;0.93;0.55;;;;;;;;;;5014106;28;20434;-84
2023/10/31 01:13:47;;;;;;;0.60;0.40;;;;;;;;;;5008599;28;20298;-82
2023/10/31 01:16:13;;;;;;;0.30;0.30;;;;;;;;;;5009881;28;20504;-84
2023/10/31 01:18:39;;;;;;;0.50;0.40;;;;;;;;;;5013757;28;20473;-82
2023/10/31 01:21:05;;;;;;;0.40;0.30;;;;;;;;;;5012009;28;20441;-84
2023/10/31 01:23:31;;;;;;;0.73;0.70;;;;;;;;;;5012565;28;20515;-83
2023/10/31 01:25:57;;;;;;;0.40;0.40;;;;;;;;;;5011542;28;20465;-84
2023/10/31 01:28:23;;;;;;;0.40;0.30;;;;;;;;;;5013780;28;20433;-84
2023/10/31 01:30:49;;;;;;;0.40;0.40;;;;;;;;;;5012177;28;20433;-84
2023/10/31 01:33:15;;;;;;;0.87;0.57;;;;;;;;;;5013725;28;20445;-82
2023/10/31 01:35:41;;;;;;;0.40;0.40;;;;;;;;;;5012998;28;20433;-84
2023/10/31 01:38:07;;;;;;;0.40;0.40;;;;;;;;;;5016473;28;20190;-82
2023/10/31 01:40:33;;;;;;;0.40;0.30;;;;;;;;;;5044683;28;20414;-81
2023/10/31 01:42:59;;;;;;;0.30;0.20;;;;;;;;;;5017205;28;20441;-84
2023/10/31 01:45:24;;;;;;;0.40;0.30;;;;;;;;;;5022911;28;20484;-84
2023/10/31 01:47:50;;;;;;;0.93;0.60;;;10.10;99.90;;;;;;5030085;28;20521;-85
2023/10/31 01:50:18;;;;;;;0.50;0.50;;;;;;;;;;5014272;28;20976;-84
2023/10/31 01:52:44;;;;;;;0.50;0.30;;;;;;;;;;5011864;28;20229;-83
2023/10/31 01:55:11;;;;;;;0.77;0.73;;;10.10;99.90;;;;;;5014999;28;20214;-81
2023/10/31 01:57:36;;;;;;;9.55;0.75;;;;;;;;;;5029708;28;20266;-84
2023/10/31 02:00:03;;;;;;;0.50;0.40;;;;;;;;;;5012688;28;20770;-81
2023/10/31 02:02:32;;;;;;;0.70;0.50;;;10.30;99.90;;;;;;5013790;28;20425;-82
2023/10/31 02:04:58;;;;;;;2.05;0.55;;;;;;;;;;5019572;28;20206;-84
2023/10/31 02:07:24;;;;;;;0.40;0.30;;;;;;;;;;5014379;28;20175;-82
2023/10/31 02:09:51;;;;;;;1.90;0.40;;;;;;;;;;5015265;28;20246;-82
2023/10/31 02:12:37;;;;;;;1.02;0.65;;;10.30;99.90;;;;;;5005956;28;20433;-83
2023/10/31 02:15:04;;;;;;;0.60;0.30;;;10.10;99.90;;;;;;5007458;28;20210;-82
2023/10/31 02:17:30;;;;;;;0.40;0.30;;;10.20;99.90;;;;;;5011370;28;20194;-82
2023/10/31 02:19:56;;;;;;;1.13;0.50;;;;;;;;;;5013092;28;20222;-85
2023/10/31 02:22:22;;;;;;;0.40;0.30;;;10.10;99.90;;;;;;5026522;28;20561;-86
2023/10/31 02:24:48;;;;;;;0.60;0.30;;;;;;;;;;5011232;28;20846;-84
2023/10/31 02:27:14;;;;;;;0.40;0.20;;;;;;;;;;5026905;28;20244;-81
2023/10/31 02:29:40;;;;;;;0.40;0.33;;;10.10;99.90;;;;;;5010927;28;20464;-84
2023/10/31 02:32:06;;;;;;;0.40;0.30;;;;;;;;;;5026483;28;20466;-82
2023/10/31 02:34:33;;;;;;;0.40;0.30;;;;;;;;;;5012107;28;20923;-86
2023/10/31 02:36:59;;;;;;;0.50;0.30;;;;;;;;;;5011597;28;20695;-83
2023/10/31 02:39:24;;;;;;;0.43;0.40;;;;;;;;;;5011581;28;20212;-86
2023/10/31 02:41:50;;;;;;;0.40;0.30;;;;;;;;;;5012996;28;20488;-85
2023/10/31 02:44:16;;;;;;;0.40;0.30;;;;;;;;;;5003281;28;20474;-82
2023/10/31 02:46:42;;;;;;;0.38;0.35;;;;;;;;;;5013073;28;20433;-84
2023/10/31 02:49:09;;;;;;;0.70;0.63;;;;;;;;;;5018095;28;20212;-85
2023/10/31 02:51:35;;;;;;;1.65;0.40;;;;;;;;;;5026542;28;20437;-81
2023/10/31 02:54:01;;;;;;;0.57;0.45;;;;;;;;;;5012224;28;20224;-83
2023/10/31 02:56:27;;;;;;;0.40;0.30;;;9.90;99.90;;;;;;5013501;28;20191;-82
2023/10/31 02:58:53;;;;;;;0.40;0.40;;;;;;;;;;5004563;28;20453;-83
2023/10/31 03:01:19;;;;;;;0.40;0.30;;;;;;;;;;5010045;28;20194;-83
2023/10/31 03:03:46;;;;;;;1.17;0.40;;;;;;;;;;5026298;28;20465;-81
2023/10/31 03:06:12;;;;;;;3.35;0.60;;;;;;;;;;5003908;28;20214;-81
2023/10/31 03:08:37;;;;;;;0.77;0.40;;;;;;;;;;5012158;28;20242;-82
2023/10/31 03:11:03;;;;;;;1.10;0.60;;;;;;;;;;5011774;28;20487;-83
2023/10/31 03:13:29;;;;;;;0.87;0.43;;;;;;;;;;5031590;28;20538;-85
2023/10/31 03:15:55;;;;;;;4.23;0.40;;;;;;;;;;5004954;28;20448;-84
2023/10/31 03:18:22;;;;;;;1.00;0.90;;;;;;;;;;5015271;28;20441;-87
2023/10/31 03:20:48;;;;;;;0.50;0.50;;;;;;;;;;5015010;28;20445;-84
2023/10/31 03:23:14;;;;;;;0.40;0.30;;;;;;;;;;5014953;28;20202;-83
2023/10/31 03:25:40;;;;;;;0.40;0.30;;;10.00;99.90;;;;;;5015604;28;20468;-85
2023/10/31 03:28:17;;;;;;;0.40;0.30;;;9.90;99.90;;;;;;5017812;28;20198;-85
2023/10/31 03:30:43;;;;;;;2.33;1.45;;;;;;;;;;5013963;28;21299;-84
2023/10/31 03:33:10;;;;;;;0.40;0.40;;;;;;;;;;5013158;28;20186;-84
2023/10/31 03:35:36;;;;;;;0.95;0.50;;;;;;;;;;5014862;28;20433;-84
2023/10/31 03:38:02;;;;;;;1.63;0.80;;;;;;;;;;5015431;28;20205;-82
2023/10/31 03:40:28;;;;;;;0.60;0.32;;;;;;;;;;5015954;28;20449;-82
2023/10/31 03:42:54;;;;;;;1.20;0.63;;;;;;;;;;5015317;28;20206;-83
2023/10/31 03:45:20;;;;;;;0.50;0.40;;;;;;;;;;5021667;28;20206;-83
2023/10/31 03:47:46;;;;;;;0.73;0.30;;;;;;;;;;5015929;28;20433;-82
2023/10/31 03:50:12;;;;;;;0.50;0.40;;;;;;;;;;5014801;28;20455;-84
2023/10/31 03:52:38;;;;;;;5.73;0.50;;;;;;;;;;5022353;28;20745;-87
2023/10/31 03:55:04;;;;;;;0.40;0.30;;;10.00;99.90;;;;;;5012944;28;20457;-83
2023/10/31 03:57:30;;;;;;;0.63;0.50;;;;;;;;;;5015142;28;20468;-84
2023/10/31 03:59:56;;;;;;;1.57;0.70;;;;;;;;;;5014882;28;20210;-85
2023/10/31 04:02:22;;;;;;;1.00;0.53;;;;;;;;;;5007973;28;20436;-84
2023/10/31 04:04:48;;;;;;;0.63;0.27;;;;;;;;;;5013235;28;20475;-84
2023/10/31 04:07:14;;;;;;;1.00;0.60;;;;;;;;;;5023873;28;20444;-84
2023/10/31 04:09:40;;;;;;;0.30;0.30;;;;;;;;;;5014195;28;20256;-84
2023/10/31 04:12:06;;;;;;;0.40;0.30;;;10.10;99.90;;;;;;5010874;28;20833;-84
2023/10/31 04:14:32;;;;;;;0.50;0.40;;;;;;;;;;5024297;28;20444;-86
2023/10/31 04:16:58;;;;;;;2.30;0.40;;;;;;;;;;5016290;28;20437;-82
2023/10/31 04:19:24;;;;;;;0.43;0.43;;;;;;;;;;5014810;28;20429;-84
2023/10/31 04:21:50;;;;;;;0.50;0.40;;;;;;;;;;5015542;28;20511;-82
2023/10/31 04:24:16;;;;;;;1.07;0.50;;;;;;;;;;5014531;28;20465;-83
2023/10/31 04:26:42;;;;;;;1.07;0.40;;;;;;;;;;5013419;28;20453;-84
2023/10/31 04:29:08;;;;;;;2.23;0.73;;;;;;;;;;5013536;28;20495;-85
2023/10/31 04:31:34;;;;;;;0.73;0.37;;;;;;;;;;5012061;28;20441;-83
2023/10/31 04:33:59;;;;;;;0.77;0.77;;;10.10;99.90;;;;;;5012076;28;20531;-83
2023/10/31 04:36:25;;;;;;;0.40;0.30;;;;;;;;;;5013382;28;20444;-84
2023/10/31 04:38:51;;;;;;;0.60;0.33;;;;;;;;;;5014323;28;20182;-84
2023/10/31 04:41:17;;;;;;;0.50;0.30;;;;;;;;;;5013347;28;20421;-86
2023/10/31 04:43:43;;;;;;;0.83;0.43;;;;;;;;;;5011739;28;20280;-82
2023/10/31 04:46:09;;;;;;;1.15;0.85;;;;;;;;;;5024627;28;20507;-84
2023/10/31 04:48:35;;;;;;;0.40;0.30;;;;;;;;;;5011926;28;20182;-84
2023/10/31 04:51:01;;;;;;;0.40;0.30;;;;;;;;;;5027258;28;20916;-83
2023/10/31 04:53:27;;;;;;;0.37;0.30;;;;;;;;;;5011779;28;20210;-84
2023/10/31 04:55:53;;;;;;;0.73;0.30;;;;;;;;;;5013166;28;20453;-83
2023/10/31 04:58:19;;;;;;;0.70;0.40;;;;;;;;;;5013148;28;20938;-80
2023/10/31 05:00:45;;;;;;;0.30;0.20;;;;;;;;;;5019952;28;20425;-84
2023/10/31 05:03:11;;;;;;;0.40;0.30;;;;;;;;;;5009735;28;20185;-83
2023/10/31 05:05:37;;;;;;;0.87;0.40;;;;;;;;;;5017340;28;20461;-82
2023/10/31 05:08:03;;;;;;;0.87;0.40;;;;;;;;;;5017316;28;20430;-82
2023/10/31 05:10:29;;;;;;;0.60;0.40;;;;;;;;;;5012277;28;20456;-85
2023/10/31 05:12:56;;;;;;;0.40;0.32;;;;;;;;;;5013219;28;20204;-83
2023/10/31 05:15:22;;;;;;;0.60;0.50;;;;;;;;;;5008313;28;20195;-83
2023/10/31 05:17:48;;;;;;;0.40;0.40;;;;;;;;;;5010483;28;20182;-82
2023/10/31 05:20:14;;;;;;;0.60;0.30;;;;;;;;;;5025243;28;20499;-83
2023/10/31 05:22:41;;;;;;;1.73;0.43;;;10.00;99.90;;;;;;5008378;28;20273;-82
2023/10/31 05:25:07;;;;;;;0.40;0.30;;;;;;;;;;5020962;28;20497;-81
2023/10/31 05:27:33;;;;;;;3.60;0.40;;;;;;;;;;5012339;28;20198;-84
2023/10/31 05:29:58;;;;;;;0.50;0.50;;;10.10;99.90;;;;;;5008519;28;20189;-82
2023/10/31 05:32:24;;;;;;;1.00;0.60;;;;;;;;;;5012056;28;20438;-82
2023/10/31 05:34:50;;;;;;;0.60;0.30;;;;;;;;;;5012535;28;20302;-87
2023/10/31 05:37:16;;;;;;;0.47;0.37;;;;;;;;;;5011330;28;20449;-82
2023/10/31 05:39:42;;;;;;;0.40;0.30;;;;;;;;;;5013598;28;20441;-85
2023/10/31 05:42:08;;;;;;;0.90;0.77;;;;;;;;;;5010926;28;20540;-82
2023/10/31 05:44:34;;;;;;;0.60;0.47;;;;;;;;;;5010476;28;20989;-83
2023/10/31 05:47:00;;;;;;;1.77;0.50;;;;;;;;;;5006262;28;20448;-82
2023/10/31 05:49:26;;;;;;;0.63;0.40;;;;;;;;;;5009484;28;20445;-82
2023/10/31 05:51:52;;;;;;;0.60;0.43;;;;;;;;;;5009866;28;20437;-85
2023/10/31 05:54:18;;;;;;;0.40;0.30;;;;;;;;;;5010252;28;20305;-82
2023/10/31 05:56:44;;;;;;;0.70;0.38;;;;;;;;;;5010983;28;20675;-82
2023/10/31 05:59:11;;;;;;;0.40;0.35;;;;;;;;;;5025428;28;20201;-80
2023/10/31 06:01:36;;;;;;;0.63;0.50;;;10.00;99.90;;;;;;5004091;28;21203;-84
2023/10/31 06:04:02;;;;;;;0.40;0.30;;;;;;;;;;5016835;28;20210;-82
2023/10/31 06:06:28;;;;;;;0.30;0.20;;;;;;;;;;5009285;28;20186;-83
2023/10/31 06:08:54;;;;;;;0.30;0.30;;;;;;;;;;5025096;28;20241;-82
2023/10/31 06:11:20;;;;;;;0.70;0.33;;;;;;;;;;5014126;28;20529;-84
2023/10/31 06:13:47;;;;;;;0.30;0.20;;;;;;;;;;5015364;28;20465;-81
2023/10/31 06:16:13;;;;;;;0.30;0.30;;;;;;;;;;5016073;28;20468;-83
2023/10/31 06:18:42;;;;;;;1.17;0.50;;;;;;;;;;5013375;28;20174;-81
2023/10/31 06:21:11;;;;;;;0.40;0.30;;;;;;;;;;5026676;28;20461;-82
2023/10/31 06:23:38;;;;;;;0.40;0.40;;;10.00;99.90;;;;;;5011569;28;20201;-83
2023/10/31 06:26:04;;;;;;;1.40;0.30;;;;;;;;;;5000700;28;20213;-82
2023/10/31 06:28:30;;;;;;;0.40;0.40;;;;;;;;;;5011039;28;20687;-84
2023/10/31 06:30:56;;;;;;;0.50;0.40;;;;;;;;;;5011554;28;20186;-85
2023/10/31 06:33:21;;;;;;;2.30;0.40;;;10.20;99.90;;;;;;5005570;28;20464;-85
2023/10/31 06:35:47;;;;;;;0.40;0.30;;;;;;;;;;5007125;28;20491;-81
2023/10/31 06:38:13;;;;;;;1.33;0.40;;;;;;;;;;5009865;28;20727;-82
2023/10/31 06:40:39;;;;;;;0.40;0.30;;;;;;;;;;5010426;28;20437;-81
2023/10/31 06:43:05;;;;;;;0.40;0.30;;;;;;;;;;5023125;28;20452;-82
2023/10/31 06:45:31;;;;;;;0.87;0.30;;;;;;;;;;5011488;28;20571;-84
2023/10/31 06:47:57;;;;;;;0.40;0.30;;;;;;;;;;5016884;28;20453;-81
2023/10/31 06:50:23;;;;;;;0.37;0.30;;;;;;;;;;5024109;28;20456;-86
2023/10/31 06:52:49;;;;;;;0.40;0.30;;;;;;;;;;5014225;28;20452;-84
2023/10/31 06:55:15;;;;;;;1.03;0.63;;;;;;;;;;5016708;28;20202;-83
2023/10/31 06:57:42;;;;;;;0.40;0.20;;;;;;;;;;5031070;28;20441;-84
2023/10/31 07:00:08;;;;;;;3.53;0.47;;;10.40;99.90;;;;;;5015939;28;20240;-83
2023/10/31 07:02:35;;;;;;;0.35;0.30;;;10.40;99.90;;;;;;5019906;28;20190;-82
2023/10/31 07:05:01;;;;;;;0.95;0.35;;;;;;;;;;5015848;28;20214;-84
2023/10/31 07:07:26;;;;;;;3.78;0.43;;;;;;;;;;5014401;28;20212;-84
2023/10/31 07:09:52;;;;;;;0.40;0.30;;;;;;;;;;5009194;28;20195;-82
2023/10/31 07:12:18;;;;;;;0.60;0.60;;;;;;;;;;5016394;28;20551;-80
2023/10/31 07:14:44;;;;;;;0.50;0.30;;;;;;;;;;5014559;28;20500;-84
2023/10/31 07:17:11;;;;;;;0.70;0.50;;;10.80;99.90;;;;;;5013467;28;20437;-83
2023/10/31 07:19:37;;;;;;;0.40;0.30;;;;;;;;;;5030829;28;20533;-84
2023/10/31 07:22:03;;;;;;;7.60;0.50;;;;;;;;;;5020326;28;20254;-82
2023/10/31 07:24:29;;;;;;;0.50;0.40;;;;;;;;;;5015358;28;20481;-83
2023/10/31 07:26:55;;;;;;;0.40;0.20;;;;;;;;;;5016392;28;20661;-83
2023/10/31 07:29:21;;;;;;;0.40;0.30;;;;;;;;;;5014236;28;20447;-83
2023/10/31 07:31:47;;;;;;;0.57;0.43;;;10.60;99.90;;;;;;5033032;28;20178;-84
2023/10/31 07:34:13;;;;;;;0.40;0.30;;;;;;;;;;5018306;28;20298;-83
2023/10/31 07:36:41;;;;;;;0.40;0.20;;;10.70;99.90;;;;;;5015015;28;20259;-84
2023/10/31 07:39:07;;;;;;;0.40;0.30;;;;;;;;;;5018280;28;20807;-85
2023/10/31 07:41:33;;;;;;;0.60;0.45;;;;;;;;;;5016793;28;20214;-82
2023/10/31 07:43:59;;;;;;;0.70;0.40;;;;;;;;;;5008756;28;20206;-83
2023/10/31 07:46:25;;;;;;;2.40;0.33;;;;;;;;;;5016328;28;20492;-83
2023/10/31 07:48:51;;;;;;;0.70;0.50;;;;;;;;;;5015494;28;20525;-83
2023/10/31 07:51:17;;;;;;;1.60;0.97;;;;;;;;;;5014640;28;20441;-83
2023/10/31 07:53:43;;;;;;;0.50;0.30;;;;;;;;;;5047058;28;20456;-83
2023/10/31 07:56:22;;;;;;;2.05;0.50;;;11.30;99.90;;;;;;5022768;28;20441;-83
2023/10/31 07:58:49;;;;;;;2.88;0.45;;;;;;;;;;5016465;28;20240;-83
2023/10/31 08:01:15;;;;;;;0.60;0.60;;;;;;;;;;5018527;28;20189;-81
2023/10/31 08:03:41;;;;;;;0.50;0.43;;;;;;;;;;5014326;28;20261;-85
2023/10/31 08:06:07;;;;;;;0.40;0.30;;;;;;;;;;5016791;28;21170;-81
2023/10/31 08:08:34;;;;;;;0.60;0.40;;;;;;;;;;5016352;28;20433;-83
2023/10/31 08:11:00;;;;;;;0.40;0.30;;;;;;;;;;5017797;28;20221;-81
2023/10/31 08:13:26;;;;;;;0.40;0.30;;;;;;;;;;5018375;28;20217;-81
2023/10/31 08:15:52;;;;;;;1.50;0.30;;;;;;;;;;5018559;28;20198;-83
2023/10/31 08:18:18;;;;;;;0.40;0.30;;;;;;;;;;5013958;28;20742;-83
2023/10/31 08:20:46;;;;;;;0.40;0.30;;;;;;;;;;5020117;28;20437;-80
2023/10/31 08:23:12;;;;;;;0.83;0.30;;;;;;;;;;5018201;28;20470;-85
2023/10/31 08:25:38;;;;;;;0.50;0.43;;;;;;;;;;5020862;28;20483;-85
2023/10/31 08:28:04;;;;;;;0.50;0.40;;;;;;;;;;5020060;28;20451;-84
2023/10/31 08:30:30;;;;;;;1.30;0.57;;;;;;;;;;5021425;28;20433;-82
2023/10/31 08:32:56;;;;;;;1.27;0.30;;;;;;;;;;5033503;28;20421;-82
2023/10/31 08:35:22;;;;;;;3.03;0.97;;;;;;;;;;5018722;28;20551;-83
2023/10/31 08:37:48;;;;;;;0.50;0.40;;;;;;;;;;5016409;28;20449;-81
2023/10/31 08:40:14;;;;;;;0.40;0.40;;;;;;;;;;5016288;28;20461;-83
2023/10/31 08:42:41;;;;;;;1.00;0.40;;;12.50;99.90;;;;;;5016507;28;21022;-81
2023/10/31 08:45:07;;;;;;;0.85;0.47;;;12.20;99.90;;;;;;5015754;28;20472;-83
2023/10/31 08:47:33;;;;;;;1.35;0.50;;;;;;;;;;5017462;28;20257;-85
2023/10/31 08:49:59;;;;;;;1.13;0.73;;;;;;;;;;5007650;28;20183;-84
2023/10/31 08:52:25;;;;;;;0.50;0.30;;;;;;;;;;5009158;28;20429;-83
2023/10/31 08:54:51;;;;;;;0.40;0.30;;;;;;;;;;5017293;28;20468;-82
2023/10/31 08:57:17;;;;;;;0.40;0.20;;;;;;;;;;5014589;28;20543;-82
2023/10/31 08:59:43;;;;;;;2.60;0.93;;;;;;;;;;5016903;28;20441;-82
2023/10/31 09:02:09;;;;;;;0.60;0.50;;;;;;;;;;5033533;28;20455;-82
2023/10/31 09:04:35;;;;;;;2.00;1.05;;;11.90;99.90;;;;;;5014048;28;20469;-81
2023/10/31 09:07:01;;;;;;;4.57;0.40;;;;;;;;;;5016928;28;20192;-82
2023/10/31 09:09:27;;;;;;;2.60;0.60;;;;;;;;;;5016455;28;20220;-84
2023/10/31 09:11:53;;;;;;;0.80;0.43;;;;;;;;;;5017440;28;20270;-85
2023/10/31 09:14:19;;;;;;;1.10;0.60;;;;;;;;;;5017829;28;20468;-85
2023/10/31 09:16:45;;;;;;;0.40;0.30;;;;;;;;;;5017055;28;20437;-83
2023/10/31 09:19:11;;;;;;;0.40;0.30;;;;;;;;;;5016524;28;20488;-83
2023/10/31 09:21:37;;;;;;;4.40;0.47;;;;;;;;;;5016303;28;20175;-83
2023/10/31 09:24:03;;;;;;;0.85;0.55;;;;;;;;;;5015251;28;20532;-84
2023/10/31 09:26:29;;;;;;;1.05;0.65;;;;;;;;;;5016032;28;20241;-83
2023/10/31 09:28:56;;;;;;;2.53;0.60;;;11.90;99.90;;;;;;5015142;28;21178;-84
2023/10/31 09:31:22;;;;;;;0.40;0.40;;;;;;;;;;5014430;28;20437;-84
2023/10/31 09:33:48;;;;;;;0.88;0.57;;;;;;;;;;5030276;28;20205;-85
2023/10/31 09:36:14;;;;;;;0.67;0.30;;;11.80;99.90;;;;;;5010552;28;20194;-85
2023/10/31 09:38:40;;;;;;;0.60;0.40;;;11.90;99.90;;;;;;5018919;28;20449;-82
2023/10/31 09:41:06;;;;;;;1.70;0.57;;;;;;;;;;5015294;28;20193;-84
2023/10/31 09:43:32;;;;;;;1.50;0.82;;;;;;;;;;5015290;28;20214;-85
2023/10/31 09:46:00;;;;;;;6.38;0.50;;;;;;;;;;5021133;28;20210;-83
2023/10/31 09:48:26;;;;;;;0.50;0.30;;;;;;;;;;5008507;28;20270;-84
2023/10/31 09:50:53;;;;;;;0.60;0.50;;;13.30;99.90;;;;;;5027643;28;20189;-84
2023/10/31 09:53:20;;;;;;;3.80;0.50;;;13.30;99.90;;;;;;5013013;28;20505;-84
2023/10/31 09:55:46;;;;;;;4.00;0.57;;;;;;;;;;5014828;28;20503;-87
2023/10/31 09:58:12;;;;;;;0.67;0.37;;;;;;;;;;5020311;28;20433;-86
2023/10/31 10:00:40;;;;;;;0.50;0.50;;;;;;;;;;5032158;28;20441;-83
2023/10/31 10:03:09;;;;;;;2.17;0.40;;;13.20;99.90;;;;;;5026177;28;20540;-85
2023/10/31 10:05:35;;;;;;;0.40;0.33;;;13.10;99.90;;;;;;5013347;28;20477;-84
2023/10/31 10:08:01;;;;;;;1.03;0.57;;;;;;;;;;5014011;28;21235;-83
2023/10/31 10:10:29;;;;;;;1.80;0.70;;;;;;;;;;5014390;28;20417;-84
2023/10/31 10:12:55;;;;;;;0.40;0.30;;;13.50;99.90;;;;;;5013775;28;20437;-82
2023/10/31 10:15:21;;;;;;;14.30;1.13;;;;;;;;;;5010597;28;20511;-85
2023/10/31 10:17:51;;;;;;;2.60;0.50;;;13.60;99.90;;;;;;5014041;28;20429;-82
2023/10/31 10:20:18;;;;;;;1.23;0.60;;;13.10;99.90;;;;;;5009663;28;20444;-85
2023/10/31 10:22:44;;;;;;;2.30;0.60;;;;;;;;;;5009395;28;20441;-84
2023/10/31 10:25:15;;;;;;;2.20;0.67;;;13.10;99.90;;;;;;5009739;28;20477;-82
2023/10/31 10:27:41;;;;;;;3.03;0.70;;;13.50;99.90;;;;;;5009488;28;20487;-83
2023/10/31 10:30:12;;;;;;;0.40;0.30;;;13.40;99.90;;;;;;5000407;28;20509;-82
2023/10/31 10:32:38;;;;;;;2.23;1.17;;;;;;;;;;5017379;28;20446;-83
2023/10/31 10:35:05;;;;;;;0.60;0.50;;;13.60;99.90;;;;;;5010682;28;20461;-84
2023/10/31 10:37:31;;;;;;;3.10;0.70;;;;;;;;;;5006164;28;20445;-83
2023/10/31 10:39:59;;;;;;;0.60;0.50;;;;;;;;;;5025379;28;20473;-84
2023/10/31 10:42:46;;;;;;;3.43;0.70;;;13.90;99.90;;;;;;5010427;28;20951;-85
2023/10/31 10:45:15;;;;;;;0.50;0.40;;;13.80;99.90;;;;;;5016923;28;20946;-84
2023/10/31 10:47:41;;;;;;;0.90;0.73;;;;;;;;;;5015300;28;20461;-85
2023/10/31 10:50:08;;;;;;;1.47;0.40;;;13.80;99.90;;;;;;5013735;28;20631;-84
2023/10/31 10:52:46;;;;;;;1.50;0.83;;;13.60;99.90;;;;;;5006994;28;20933;-84
2023/10/31 10:55:19;;;;;;;1.07;0.50;;;13.40;99.90;;;;;;5013159;28;20536;-82
2023/10/31 10:58:08;;;;;;;8.50;0.60;;;13.10;99.90;;;;;;5011057;28;20445;-82
2023/10/31 11:00:35;;;;;;;0.83;0.40;;;;;;;;;;5009086;28;20464;-83
2023/10/31 11:03:01;;;;;;;0.60;0.30;;;13.00;99.90;;;;;;5013377;28;20421;-81
2023/10/31 11:05:27;;;;;;;0.50;0.30;;;;;;;;;;5011488;28;20468;-83
2023/10/31 11:07:55;;;;;;;0.57;0.40;;;;;;;;;;5026952;28;20186;-82
2023/10/31 11:10:21;;;;;;;0.70;0.70;;;13.00;99.90;;;;;;5012831;28;20452;-84
2023/10/31 11:12:47;;;;;;;1.37;1.07;;;;;;;;;;5014297;28;20437;-84
2023/10/31 11:15:16;;;;;;;1.53;0.67;;;12.90;99.90;;;;;;5011237;28;20459;-81
2023/10/31 11:17:47;;;;;;;0.80;0.80;;;13.20;99.90;;;;;;5017792;28;20441;-85
2023/10/31 11:20:15;;;;;;;0.97;0.47;;;13.60;99.90;;;;;;5013419;28;20433;-80
2023/10/31 11:22:44;;;;;;;3.93;0.50;;;14.10;99.90;;;;;;5011914;28;20433;-84
2023/10/31 11:25:23;;;;;;;0.70;0.47;;;14.60;99.90;;;;;;5012252;28;20476;-83
2023/10/31 11:27:52;;;;;;;0.73;0.53;;;14.50;99.90;;;;;;5027669;28;20516;-81
2023/10/31 11:30:22;;;;;;;2.20;0.30;;;14.30;99.90;;;;;;5023111;28;20453;-85
2023/10/31 11:32:49;;;;;;;1.13;0.37;;;14.10;99.90;;;;;;5013498;28;20440;-85
2023/10/31 11:35:17;;;;;;;0.80;0.30;;;14.00;99.90;;;;;;5015779;28;21403;-84
2023/10/31 11:37:43;;;;;;;0.73;0.43;;;;;;;;;;5015291;28;20437;-84
2023/10/31 11:40:22;;;;;;;0.80;0.40;;;13.70;99.90;;;;;;5015112;28;20441;-83
2023/10/31 11:42:54;;;;;;;8.57;0.57;;;13.40;99.90;;;;;;5016366;28;20487;-87
2023/10/31 11:45:35;;;;;;;0.50;0.50;;;13.70;99.90;;;;;;5030673;28;20510;-83
2023/10/31 11:48:01;;;;;;;0.50;0.40;;;;;;;;;;5014591;28;20433;-83
2023/10/31 11:50:27;;;;;;;0.57;0.40;;;;;;;;;;5014799;28;20440;-82
2023/10/31 11:53:12;;;;;;;0.50;0.37;;;13.90;99.90;;;;;;5021020;28;20460;-84
2023/10/31 11:55:46;;;;;;;0.40;0.20;;;13.50;99.90;;;;;;5015722;28;20430;-83
2023/10/31 11:58:26;;;;;;;1.10;0.80;;;13.60;99.90;;;;;;5013999;28;20437;-82
2023/10/31 12:01:00;;;;;;;0.57;0.40;;;13.70;99.90;;;;;;5013080;28;20465;-82
2023/10/31 12:03:26;;;;;;;0.40;0.30;;;;;;;;;;5026508;28;20469;-83
2023/10/31 12:05:52;;;;;;;3.40;0.33;;;;;;;;;;5013899;28;20488;-84
2023/10/31 12:08:28;;;;;;;0.50;0.33;;;13.90;99.90;;;;;;5014976;28;20437;-85
2023/10/31 12:11:12;;;;;;;0.60;0.37;;;13.90;99.90;;;;;;5014791;28;20441;-84
2023/10/31 12:13:51;;;;;;;0.40;0.30;;;13.90;99.90;;;;;;5014873;28;20457;-82
2023/10/31 12:16:17;;;;;;;0.60;0.40;;;13.70;99.90;;;;;;5006983;28;20456;-83
2023/10/31 12:18:44;;;;;;;1.17;0.40;;;13.50;99.90;;;;;;5014259;28;20927;-84
2023/10/31 12:21:14;;;;;;;0.40;0.30;;;;;;;;;;5014533;28;20452;-84
2023/10/31 12:23:40;;;;;;;2.97;0.70;;;;;;;;;;5018503;28;20463;-85
2023/10/31 12:26:06;;;;;;;0.87;0.50;;;;;;;;;;5029526;28;20541;-84
2023/10/31 12:28:32;;;;;;;0.70;0.40;;;;;;;;;;5019065;28;20500;-83
2023/10/31 12:31:10;;;;;;;1.73;0.60;;;13.30;99.90;;;;;;5119793;27;1203768;-83
2023/10/31 12:33:36;;;;;;;2.50;0.40;;;13.30;99.90;;;;;;5119069;27;20198;-84
2023/10/31 12:36:02;;;;;;;0.80;0.70;;;;;;;;;;5123588;27;20222;-81
2023/10/31 12:38:28;;;;;;;2.57;0.73;;;;;;;;;;5120444;28;20269;-83
2023/10/31 12:40:56;;;;;;;2.20;0.50;;;13.50;99.90;;;;;;5102772;28;20441;-83
2023/10/31 12:43:22;;;;;;;2.10;0.50;;;;;;;;;;5108521;28;20436;-82
2023/10/31 12:45:48;;;;;;;0.40;0.40;;;;;;;;;;5126810;27;20430;-84
2023/10/31 12:48:14;;;;;;;5.00;0.50;;;;;;;;;;5111831;28;20469;-84
2023/10/31 12:50:40;;;;;;;1.77;0.70;;;13.40;99.90;;;;;;5110382;27;21243;-83
2023/10/31 12:53:06;;;;;;;0.50;0.40;;;;;;;;;;5107956;28;20436;-82
2023/10/31 12:55:39;;;;;;;0.80;0.60;;;13.10;99.90;;;;;;5112127;28;20461;-85
2023/10/31 12:58:05;;;;;;;1.90;0.73;;;;;;;;;;5107342;28;20432;-84
2023/10/31 13:00:34;;;;;;;2.43;0.40;;;13.50;99.90;;;;;;5130021;27;20436;-85
2023/10/31 13:03:05;;;;;;;0.70;0.60;;;13.40;99.90;;;;;;5109902;28;20432;-83
2023/10/31 13:05:32;;;;;;;0.90;0.63;;;;;;;;;;5125942;28;20514;-82
2023/10/31 13:08:00;;;;;;;0.70;0.60;;;;;;;;;;5105993;28;20439;-83
2023/10/31 13:10:27;;;;;;;12.53;1.30;;;13.20;99.90;;;;;;5109847;28;20481;-83
2023/10/31 13:12:53;;;;;;;2.10;0.87;;;13.30;99.90;;;;;;5109701;27;20436;-81
2023/10/31 13:15:22;;;;;;;0.80;0.60;;;13.20;99.90;;;;;;5129034;28;20469;-84
2023/10/31 13:17:49;;;;;;;0.70;0.50;;;13.20;99.90;;;;;;5107591;28;20491;-83
2023/10/31 13:20:17;;;;;;;0.80;0.40;;;13.20;99.90;;;;;;5110264;28;20445;-83
2023/10/31 13:22:43;;;;;;;1.00;0.60;;;;;;;;;;5106713;28;20484;-84
2023/10/31 13:25:11;;;;;;;1.47;0.80;;;12.90;99.90;;;;;;5106460;28;21467;-83
2023/10/31 13:27:38;;;;;;;1.47;0.83;;;12.90;99.90;;;;;;5121989;28;20446;-84
2023/10/31 13:30:04;;;;;;;1.00;0.70;;;13.00;99.90;;;;;;5124418;28;20492;-82
2023/10/31 13:32:30;;;;;;;1.03;0.70;;;13.00;99.90;;;;;;5126975;27;20441;-82
2023/10/31 13:34:56;;;;;;;1.17;0.60;;;12.90;99.90;;;;;;5107352;28;20451;-83
2023/10/31 13:37:22;;;;;;;2.80;0.60;;;13.10;99.90;;;;;;5122982;27;20202;-82
2023/10/31 13:39:48;;;;;;;0.60;0.40;;;;;;;;;;5100177;28;20194;-84
2023/10/31 13:42:16;;;;;;;1.33;0.50;;;;;;;;;;5096939;28;20510;-82
2023/10/31 13:44:43;;;;;;;0.90;0.50;;;13.10;99.90;;;;;;5111923;28;20463;-82
2023/10/31 13:47:09;;;;;;;0.60;0.30;;;13.10;99.90;;;;;;5094768;28;20463;-83
2023/10/31 13:49:35;;;;;;;0.50;0.30;;;;;;;;;;5095661;28;20982;-84
2023/10/31 13:52:00;;;;;;;0.50;0.40;;;12.90;99.90;;;;;;5101154;28;20467;-81
2023/10/31 13:54:26;;;;;;;0.50;0.33;;;;;;;;;;5111169;28;20456;-84
2023/10/31 13:56:53;;;;;;;0.50;0.40;;;;;;;;;;5099777;28;20512;-84
2023/10/31 13:59:19;;;;;;;1.07;0.40;;;;;;;;;;5106270;28;20447;-80
2023/10/31 14:01:46;;;;;;;1.77;0.63;;;13.20;99.90;;;;;;5106335;28;20857;-85
2023/10/31 14:04:16;;;;;;;0.67;0.43;;;;;;;;;;5095971;28;20457;-84